createdAt,value
2018-12-10T00:00:29.547Z,6.20
2018-12-10T00:03:04.583Z,6.50
2018-12-10T00:05:34.546Z,4.73
2018-12-10T00:08:04.617Z,5.57
2018-12-10T00:10:41.411Z,5.00
2018-12-10T00:13:06.640Z,6.43
2018-12-10T00:15:36.585Z,5.53
2018-12-10T00:18:06.574Z,5.50
2018-12-10T00:20:36.389Z,5.60
2018-12-10T00:23:06.301Z,6.93
2018-12-10T00:25:36.174Z,5.37
2018-12-10T00:28:07.085Z,4.90
2018-12-10T00:30:37.073Z,6.40
2018-12-10T00:33:07.016Z,5.63
2018-12-10T00:35:36.933Z,4.87
2018-12-10T00:38:06.978Z,5.07
2018-12-10T00:40:37.064Z,4.20
2018-12-10T00:43:06.977Z,6.00
2018-12-10T00:45:36.973Z,5.30
2018-12-10T00:48:06.908Z,6.07
2018-12-10T00:50:36.910Z,5.57
2018-12-10T00:53:06.854Z,5.47
2018-12-10T00:55:36.737Z,5.50
2018-12-10T00:58:06.776Z,5.97
2018-12-10T01:00:36.829Z,6.87
2018-12-10T01:03:06.789Z,5.83
2018-12-10T01:05:36.632Z,5.67
2018-12-10T01:08:06.817Z,5.53
2018-12-10T01:10:36.760Z,5.40
2018-12-10T01:13:06.648Z,4.67
2018-12-10T01:15:36.597Z,5.17
2018-12-10T01:18:07.604Z,4.90
2018-12-10T01:20:37.549Z,6.77
2018-12-10T01:23:07.464Z,4.73
2018-12-10T01:25:37.456Z,5.17
2018-12-10T01:28:07.369Z,4.50
2018-12-10T01:30:37.285Z,5.13
2018-12-10T01:33:07.099Z,5.43
2018-12-10T01:35:37.014Z,5.57
2018-12-10T01:38:06.933Z,5.30
2018-12-10T01:40:37.061Z,5.60
2018-12-10T01:43:06.961Z,5.87
2018-12-10T01:45:36.834Z,6.07
2018-12-10T01:48:07.713Z,5.73
2018-12-10T01:50:37.629Z,5.07
2018-12-10T01:53:07.447Z,4.67
2018-12-10T01:55:37.357Z,5.20
2018-12-10T01:58:07.267Z,4.83
2018-12-10T02:00:37.290Z,5.57
2018-12-10T02:03:07.232Z,5.07
2018-12-10T02:05:37.176Z,4.63
2018-12-10T02:08:07.136Z,6.10
2018-12-10T02:10:36.976Z,4.90
2018-12-10T02:13:06.974Z,5.47
2018-12-10T02:15:36.909Z,5.20
2018-12-10T02:18:06.824Z,5.03
2018-12-10T02:20:36.846Z,5.00
2018-12-10T02:23:06.737Z,6.50
2018-12-10T02:25:36.675Z,5.93
2018-12-10T02:28:06.691Z,4.73
2018-12-10T02:30:36.603Z,6.23
2018-12-10T02:33:06.476Z,5.63
2018-12-10T02:35:36.426Z,4.90
2018-12-10T02:38:06.454Z,4.67
2018-12-10T02:40:36.345Z,5.77
2018-12-10T02:43:06.255Z,4.27
2018-12-10T02:45:36.092Z,4.60
2018-12-10T02:48:06.095Z,4.57
2018-12-10T02:50:36.027Z,5.43
2018-12-10T02:53:05.920Z,5.10
2018-12-10T02:55:35.831Z,5.07
2018-12-10T02:58:05.742Z,5.20
2018-12-10T03:00:35.659Z,4.20
2018-12-10T03:03:05.642Z,5.00
2018-12-10T03:05:35.595Z,5.10
2018-12-10T03:08:05.405Z,5.03
2018-12-10T03:10:35.312Z,5.60
2018-12-10T03:13:05.262Z,5.07
2018-12-10T03:15:35.250Z,5.60
2018-12-10T03:18:05.292Z,6.00
2018-12-10T03:20:35.286Z,7.33
2018-12-10T03:23:05.230Z,5.77
2018-12-10T03:25:35.118Z,6.10
2018-12-10T03:28:05.164Z,5.37
2018-12-10T03:30:35.113Z,4.73
2018-12-10T03:33:05.200Z,6.03
2018-12-10T03:35:35.081Z,5.00
2018-12-10T03:38:05.103Z,5.20
2018-12-10T03:40:35.017Z,5.33
2018-12-10T03:43:04.992Z,5.50
2018-12-10T03:45:34.977Z,5.17
2018-12-10T03:48:04.915Z,5.57
2018-12-10T03:50:34.888Z,5.13
2018-12-10T03:53:04.736Z,5.63
2018-12-10T03:55:34.710Z,4.93
2018-12-10T03:58:04.662Z,5.47
2018-12-10T04:00:34.646Z,4.83
2018-12-10T04:03:04.593Z,5.13
2018-12-10T04:05:34.604Z,5.03
2018-12-10T04:08:04.620Z,6.03
2018-12-10T04:10:34.617Z,5.03
2018-12-10T04:13:04.524Z,5.53
2018-12-10T04:15:34.470Z,5.60
2018-12-10T04:18:04.365Z,4.93
2018-12-10T04:20:34.301Z,5.50
2018-12-10T04:23:04.228Z,5.13
2018-12-10T04:25:34.202Z,6.00
2018-12-10T04:28:04.170Z,4.80
2018-12-10T04:30:34.134Z,5.40
2018-12-10T04:33:04.085Z,5.83
2018-12-10T04:35:34.100Z,5.40
2018-12-10T04:38:04.090Z,4.93
2018-12-10T04:40:33.996Z,5.23
2018-12-10T04:43:03.912Z,6.23
2018-12-10T04:45:33.733Z,5.00
2018-12-10T04:48:03.742Z,5.13
2018-12-10T04:50:33.712Z,4.77
2018-12-10T04:53:03.678Z,5.03
2018-12-10T04:55:33.626Z,6.23
2018-12-10T04:58:03.567Z,4.20
2018-12-10T05:00:33.550Z,4.80
2018-12-10T05:03:03.465Z,4.87
2018-12-10T05:05:33.463Z,4.87
2018-12-10T05:08:05.383Z,4.63
2018-12-10T05:10:35.233Z,4.77
2018-12-10T05:13:05.148Z,4.60
2018-12-10T05:15:34.989Z,4.33
2018-12-10T05:18:04.986Z,4.40
2018-12-10T05:20:34.901Z,5.07
2018-12-10T05:23:04.864Z,4.77
2018-12-10T05:25:34.753Z,5.33
2018-12-10T05:28:04.694Z,4.30
2018-12-10T05:30:34.680Z,4.50
2018-12-10T05:33:04.606Z,4.43
2018-12-10T05:35:34.513Z,5.70
2018-12-10T05:38:04.456Z,5.07
2018-12-10T05:40:34.344Z,4.53
2018-12-10T05:43:04.233Z,5.40
2018-12-10T05:45:34.101Z,5.20
2018-12-10T05:48:06.034Z,3.97
2018-12-10T05:50:36.393Z,5.20
2018-12-10T05:53:06.345Z,5.00
2018-12-10T05:55:36.165Z,5.63
2018-12-10T05:58:06.176Z,5.50
2018-12-10T06:00:36.092Z,5.00
2018-12-10T06:03:05.935Z,4.60
2018-12-10T06:05:35.770Z,4.80
2018-12-10T06:08:05.894Z,5.57
2018-12-10T06:10:35.853Z,7.40
2018-12-10T06:13:05.667Z,4.30
2018-12-10T06:15:35.580Z,4.67
2018-12-10T06:18:05.593Z,4.77
2018-12-10T06:20:35.514Z,5.77
2018-12-10T06:23:05.429Z,4.67
2018-12-10T06:25:35.248Z,5.80
2018-12-10T06:28:05.290Z,4.57
2018-12-10T06:30:35.178Z,4.40
2018-12-10T06:33:05.113Z,4.00
2018-12-10T06:35:35.001Z,4.87
2018-12-10T06:38:05.020Z,5.03
2018-12-10T06:40:34.966Z,4.37
2018-12-10T06:43:04.877Z,4.57
2018-12-10T06:45:34.873Z,4.60
2018-12-10T06:48:04.795Z,4.50
2018-12-10T06:50:34.797Z,4.57
2018-12-10T06:53:04.845Z,4.70
2018-12-10T06:55:34.733Z,4.13
2018-12-10T06:58:04.784Z,4.80
2018-12-10T07:00:34.693Z,5.43
2018-12-10T07:03:04.581Z,5.17
2018-12-10T07:05:34.392Z,4.43
2018-12-10T07:08:04.418Z,4.70
2018-12-10T07:10:34.453Z,4.13
2018-12-10T07:13:04.345Z,4.90
2018-12-10T07:15:34.290Z,5.13
2018-12-10T07:18:04.200Z,5.37
2018-12-10T07:20:34.197Z,5.00
2018-12-10T07:23:04.137Z,5.47
2018-12-10T07:25:34.065Z,6.23
2018-12-10T07:28:04.036Z,4.90
2018-12-10T07:30:41.269Z,5.10
2018-12-10T07:33:05.768Z,5.47
2018-12-10T07:35:35.624Z,3.87
2018-12-10T07:38:05.551Z,5.23
2018-12-10T07:40:35.673Z,4.60
2018-12-10T07:43:05.607Z,5.03
2018-12-10T07:45:35.649Z,6.07
2018-12-10T07:48:06.562Z,4.37
2018-12-10T07:50:36.545Z,4.57
2018-12-10T07:53:06.464Z,5.00
2018-12-10T07:55:36.468Z,5.23
2018-12-10T07:58:06.525Z,5.00
2018-12-10T08:00:36.442Z,7.47
2018-12-10T08:03:21.281Z,6.50
2018-12-10T08:05:51.224Z,5.90
2018-12-10T08:08:21.244Z,6.37
2018-12-10T08:10:51.665Z,6.00
2018-12-10T08:13:21.582Z,6.10
2018-12-10T08:15:51.464Z,6.00
2018-12-10T08:18:21.483Z,5.87
2018-12-10T08:20:51.356Z,5.70
2018-12-10T08:23:21.345Z,6.27
2018-12-10T08:25:51.390Z,4.97
2018-12-10T08:28:22.387Z,5.00
2018-12-10T08:30:52.448Z,4.47
2018-12-10T08:33:22.309Z,5.00
2018-12-10T08:35:52.225Z,5.50
2018-12-10T08:38:22.125Z,5.43
2018-12-10T08:40:52.262Z,5.30
2018-12-10T08:43:22.127Z,5.37
2018-12-10T08:45:52.193Z,4.83
2018-12-10T08:48:22.233Z,5.27
2018-12-10T08:50:52.125Z,5.07
2018-12-10T08:53:22.065Z,4.00
2018-12-10T08:55:52.007Z,4.03
2018-12-10T08:58:23.022Z,4.60
2018-12-10T09:00:52.936Z,4.00
2018-12-10T09:03:22.950Z,5.07
2018-12-10T09:05:52.953Z,4.20
2018-12-10T09:08:23.017Z,5.40
2018-12-10T09:10:53.078Z,4.90
2018-12-10T09:13:22.946Z,4.83
2018-12-10T09:15:52.913Z,4.60
2018-12-10T09:18:22.846Z,4.70
2018-12-10T09:20:52.836Z,4.67
2018-12-10T09:23:22.702Z,4.23
2018-12-10T09:25:52.669Z,4.50
2018-12-10T09:28:22.644Z,5.80
2018-12-10T09:30:52.606Z,4.90
2018-12-10T09:33:22.516Z,5.30
2018-12-10T09:35:52.428Z,4.63
2018-12-10T09:38:22.450Z,3.97
2018-12-10T09:40:52.892Z,4.43
2018-12-10T09:43:22.794Z,4.53
2018-12-10T09:45:52.677Z,4.33
2018-12-10T09:48:22.533Z,4.57
2018-12-10T09:50:52.446Z,4.17
2018-12-10T09:53:22.376Z,5.23
2018-12-10T09:55:52.364Z,4.70
2018-12-10T09:58:22.417Z,4.80
2018-12-10T10:00:52.358Z,3.63
2018-12-10T10:03:22.344Z,3.63
2018-12-10T10:05:52.233Z,3.50
2018-12-10T10:08:22.250Z,4.23
2018-12-10T10:10:52.119Z,3.83
2018-12-10T10:13:22.085Z,4.03
2018-12-10T10:15:51.996Z,5.03
2018-12-10T10:18:23.502Z,3.53
2018-12-10T10:20:53.520Z,4.63
2018-12-10T10:23:23.484Z,4.33
2018-12-10T10:25:53.427Z,4.50
2018-12-10T10:28:23.336Z,4.67
2018-12-10T10:30:53.430Z,4.17
2018-12-10T10:33:23.242Z,3.93
2018-12-10T10:35:53.160Z,3.83
2018-12-10T10:38:23.209Z,3.53
2018-12-10T10:40:53.193Z,3.50
2018-12-10T10:43:23.049Z,4.07
2018-12-10T10:45:53.049Z,3.40
2018-12-10T10:48:23.066Z,4.20
2018-12-10T10:50:53.085Z,3.90
2018-12-10T10:53:23.000Z,3.80
2018-12-10T10:55:53.018Z,3.70
2018-12-10T10:58:22.905Z,3.45
2018-12-10T11:00:57.849Z,3.20
2018-12-10T11:03:32.682Z,3.55
2018-12-10T11:06:02.525Z,2.83
2018-12-10T11:08:32.505Z,3.12
2018-12-10T11:11:02.308Z,3.20
2018-12-10T11:13:32.325Z,2.60
2018-12-10T11:16:02.271Z,2.90
2018-12-10T11:18:32.186Z,4.15
2018-12-10T11:21:02.664Z,2.62
2018-12-10T11:23:32.613Z,2.72
2018-12-10T11:26:02.438Z,2.80
2018-12-10T11:28:32.670Z,2.67
2018-12-10T11:31:02.714Z,3.05
2018-12-10T11:33:32.612Z,2.60
2018-12-10T11:36:02.601Z,2.72
2018-12-10T11:38:32.611Z,3.10
2018-12-10T11:41:02.517Z,3.17
2018-12-10T11:43:32.670Z,2.40
2018-12-10T11:46:03.001Z,3.00
2018-12-10T11:48:32.985Z,3.17
2018-12-10T11:51:02.928Z,2.62
2018-12-10T11:53:32.825Z,3.08
2018-12-10T11:56:02.753Z,2.47
2018-12-10T11:58:32.641Z,2.92
2018-12-10T12:01:02.591Z,2.75
2018-12-10T12:03:32.501Z,2.40
2018-12-10T12:06:02.489Z,2.72
2018-12-10T12:08:32.504Z,2.62
2018-12-10T12:11:02.381Z,2.70
2018-12-10T12:13:32.369Z,2.52
2018-12-10T12:16:02.276Z,2.33
2018-12-10T12:18:33.321Z,2.85
2018-12-10T12:21:03.367Z,2.42
2018-12-10T12:23:33.333Z,2.65
2018-12-10T12:26:03.137Z,2.37
2018-12-10T12:28:33.153Z,2.35
2018-12-10T12:31:03.077Z,2.75
2018-12-10T12:33:33.038Z,3.10
2018-12-10T12:36:02.957Z,2.42
2018-12-10T12:38:33.965Z,2.35
2018-12-10T12:41:03.886Z,2.75
2018-12-10T12:43:33.976Z,3.15
2018-12-10T12:46:03.924Z,3.15
2018-12-10T12:48:33.860Z,2.40
2018-12-10T12:51:03.857Z,2.27
2018-12-10T12:53:34.462Z,2.40
2018-12-10T12:56:04.501Z,2.60
2018-12-10T12:58:34.493Z,2.25
2018-12-10T13:01:04.433Z,2.70
2018-12-10T13:03:34.342Z,3.05
2018-12-10T13:06:06.920Z,2.20
2018-12-10T13:08:36.411Z,2.20
2018-12-10T13:11:06.273Z,2.60
2018-12-10T13:13:36.381Z,2.83
2018-12-10T13:16:06.353Z,2.52
2018-12-10T13:18:36.301Z,2.80
2018-12-10T13:21:06.313Z,2.80
2018-12-10T13:23:36.333Z,2.37
2018-12-10T13:26:06.324Z,3.15
2018-12-10T13:28:39.486Z,2.50
2018-12-10T13:31:09.361Z,2.33
2018-12-10T13:33:39.376Z,2.60
2018-12-10T13:36:09.393Z,3.10
2018-12-10T13:38:39.383Z,2.50
2018-12-10T13:41:09.321Z,2.80
2018-12-10T13:43:39.367Z,2.27
2018-12-10T13:46:09.433Z,2.70
2018-12-10T13:48:39.477Z,2.60
2018-12-10T13:51:09.389Z,2.00
2018-12-10T13:53:39.442Z,2.57
2018-12-10T13:56:09.575Z,2.50
2018-12-10T13:58:39.550Z,3.00
2018-12-10T14:01:09.441Z,2.80
2018-12-10T14:03:39.357Z,2.70
2018-12-10T14:06:09.289Z,3.13
2018-12-10T14:08:39.280Z,2.73
2018-12-10T14:11:09.222Z,2.63
2018-12-10T14:13:39.213Z,2.80
2018-12-10T14:16:09.153Z,2.57
2018-12-10T14:18:39.200Z,2.37
2018-12-10T14:21:09.089Z,3.07
2018-12-10T14:23:39.105Z,2.43
2018-12-10T14:26:09.048Z,2.33
2018-12-10T14:28:40.063Z,2.37
2018-12-10T14:31:09.960Z,2.83
2018-12-10T14:33:39.889Z,2.40
2018-12-10T14:36:09.829Z,2.87
2018-12-10T14:38:39.990Z,2.93
2018-12-10T14:41:09.941Z,2.57
2018-12-10T14:43:39.983Z,2.40
2018-12-10T14:46:10.050Z,3.10
2018-12-10T14:48:39.964Z,2.53
2018-12-10T14:51:09.885Z,3.00
2018-12-10T14:53:39.720Z,2.33
2018-12-10T14:56:09.716Z,3.20
2018-12-10T14:58:39.730Z,2.77
2018-12-10T15:01:09.568Z,2.80
2018-12-10T15:03:39.557Z,3.27
2018-12-10T15:06:09.372Z,2.77
2018-12-10T15:08:39.390Z,3.43
2018-12-10T15:11:09.332Z,2.67
2018-12-10T15:13:39.285Z,2.70
2018-12-10T15:16:09.088Z,2.67
2018-12-10T15:18:39.076Z,2.90
2018-12-10T15:21:09.065Z,2.87
2018-12-10T15:23:38.936Z,3.27
2018-12-10T15:26:08.793Z,3.00
2018-12-10T15:28:38.713Z,3.40
2018-12-10T15:31:08.624Z,3.37
2018-12-10T15:33:38.444Z,2.77
2018-12-10T15:36:08.362Z,3.00
2018-12-10T15:38:38.478Z,3.70
2018-12-10T15:41:08.340Z,4.23
2018-12-10T15:43:38.305Z,3.83
2018-12-10T15:46:08.169Z,4.20
2018-12-10T15:48:40.121Z,3.63
2018-12-10T15:51:10.130Z,3.90
2018-12-10T15:53:40.013Z,4.10
2018-12-10T15:56:09.957Z,3.63
2018-12-10T15:58:39.940Z,3.87
2018-12-10T16:01:09.780Z,4.00
2018-12-10T16:03:39.799Z,3.80
2018-12-10T16:06:09.685Z,4.77
2018-12-10T16:08:40.422Z,4.27
2018-12-10T16:11:10.333Z,4.70
2018-12-10T16:13:40.266Z,6.77
2018-12-10T16:16:10.224Z,4.00
2018-12-10T16:18:40.243Z,8.13
2018-12-10T16:21:10.204Z,8.40
2018-12-10T16:23:40.113Z,6.47
2018-12-10T16:26:10.061Z,5.83
2018-12-10T16:28:40.004Z,6.30
2018-12-10T16:31:10.141Z,7.10
2018-12-10T16:33:39.989Z,6.37
2018-12-10T16:36:10.685Z,6.27
2018-12-10T16:38:40.638Z,7.63
2018-12-10T16:41:10.578Z,6.63
2018-12-10T16:43:40.620Z,6.53
2018-12-10T16:46:10.680Z,6.87
2018-12-10T16:48:40.725Z,6.73
2018-12-10T16:51:10.671Z,8.63
2018-12-10T16:53:40.630Z,7.97
2018-12-10T16:56:10.501Z,10.70
2018-12-10T16:58:40.468Z,12.53
2018-12-10T17:01:10.317Z,14.20
2018-12-10T17:03:40.289Z,15.37
2018-12-10T17:06:10.237Z,11.90
2018-12-10T17:08:40.126Z,10.07
2018-12-10T17:11:10.098Z,10.00
2018-12-10T17:13:40.009Z,10.93
2018-12-10T17:16:10.001Z,9.40
2018-12-10T17:18:39.884Z,10.27
2018-12-10T17:21:09.905Z,9.13
2018-12-10T17:23:39.720Z,8.00
2018-12-10T17:26:09.670Z,9.60
2018-12-10T17:28:39.545Z,10.03
2018-12-10T17:31:09.898Z,10.63
2018-12-10T17:33:39.817Z,12.57
2018-12-10T17:36:09.805Z,13.47
2018-12-10T17:38:39.818Z,14.47
2018-12-10T17:41:09.751Z,14.70
2018-12-10T17:43:39.678Z,14.87
2018-12-10T17:46:09.625Z,13.80
2018-12-10T17:48:40.737Z,15.47
2018-12-10T17:51:11.684Z,14.60
2018-12-10T17:53:41.874Z,16.90
2018-12-10T17:56:11.840Z,18.87
2018-12-10T17:58:43.887Z,14.50
2018-12-10T18:01:13.772Z,15.00
2018-12-10T18:03:43.676Z,21.50
2018-12-10T18:06:13.521Z,18.73
2018-12-10T18:08:44.691Z,16.90
2018-12-10T18:11:14.580Z,18.47
2018-12-10T18:13:44.593Z,18.40
2018-12-10T18:16:14.613Z,18.53
2018-12-10T18:18:44.545Z,17.67
2018-12-10T18:21:14.532Z,14.53
2018-12-10T18:23:44.332Z,14.37
2018-12-10T18:26:14.254Z,17.43
2018-12-10T18:28:44.188Z,15.93
2018-12-10T18:31:14.190Z,13.83
2018-12-10T18:33:44.375Z,18.87
2018-12-10T18:36:14.518Z,20.53
2018-12-10T18:38:44.642Z,21.90
2018-12-10T18:41:14.589Z,20.87
2018-12-10T18:43:44.712Z,19.93
2018-12-10T18:46:14.648Z,23.40
2018-12-10T18:48:45.022Z,21.30
2018-12-10T18:51:14.865Z,20.50
2018-12-10T18:53:44.953Z,21.97
2018-12-10T18:56:14.864Z,25.43
2018-12-10T18:58:44.782Z,21.93
2018-12-10T19:01:14.699Z,25.53
2018-12-10T19:03:44.563Z,28.27
2018-12-10T19:06:14.381Z,35.17
2018-12-10T19:08:45.465Z,37.60
2018-12-10T19:11:15.761Z,29.97
2018-12-10T19:13:49.944Z,25.30
2018-12-10T19:16:17.709Z,23.23
2018-12-10T19:18:48.622Z,21.13
2018-12-10T19:21:18.550Z,21.63
2018-12-10T19:23:48.450Z,22.50
2018-12-10T19:26:18.402Z,20.57
2018-12-10T19:28:48.438Z,25.33
2018-12-10T19:31:18.420Z,23.27
2018-12-10T19:33:48.410Z,21.80
2018-12-10T19:36:18.335Z,20.73
2018-12-10T19:38:48.398Z,22.53
2018-12-10T19:41:18.312Z,24.33
2018-12-10T19:43:48.193Z,30.70
2018-12-10T19:46:18.101Z,24.57
2018-12-10T19:48:48.105Z,26.80
2018-12-10T19:51:17.940Z,25.57
2018-12-10T19:53:47.942Z,22.13
2018-12-10T19:56:17.863Z,26.17
2018-12-10T19:58:47.793Z,22.97
2018-12-10T20:01:17.569Z,25.50
2018-12-10T20:03:47.553Z,27.43
2018-12-10T20:06:21.701Z,26.87
2018-12-10T20:08:51.715Z,29.67
2018-12-10T20:11:21.665Z,26.60
2018-12-10T20:13:51.557Z,26.33
2018-12-10T20:16:21.519Z,25.53
2018-12-10T20:18:51.480Z,29.20
2018-12-10T20:21:21.492Z,30.17
2018-12-10T20:23:51.365Z,28.03
2018-12-10T20:26:21.456Z,27.70
2018-12-10T20:28:51.347Z,25.63
2018-12-10T20:31:21.304Z,25.97
2018-12-10T20:33:51.307Z,27.73
2018-12-10T20:36:21.300Z,27.57
2018-12-10T20:38:51.367Z,24.83
2018-12-10T20:41:21.204Z,24.63
2018-12-10T20:43:51.097Z,24.10
2018-12-10T20:46:21.107Z,22.57
2018-12-10T20:48:51.502Z,25.87
2018-12-10T20:51:21.653Z,24.20
2018-12-10T20:53:51.530Z,24.20
2018-12-10T20:56:21.329Z,25.23
2018-12-10T20:58:51.358Z,22.90
2018-12-10T21:01:21.412Z,23.10
2018-12-10T21:03:51.190Z,21.43
2018-12-10T21:06:25.984Z,22.83
2018-12-10T21:08:55.785Z,25.73
2018-12-10T21:11:25.870Z,23.70
2018-12-10T21:13:55.752Z,23.13
2018-12-10T21:16:25.881Z,23.03
2018-12-10T21:18:56.044Z,25.07
2018-12-10T21:21:25.905Z,22.07
2018-12-10T21:23:55.825Z,22.30
2018-12-10T21:26:25.633Z,22.50
2018-12-10T21:28:55.659Z,20.97
2018-12-10T21:31:25.472Z,20.43
2018-12-10T21:33:55.408Z,20.20
2018-12-10T21:36:25.569Z,17.53
2018-12-10T21:38:55.471Z,17.30
2018-12-10T21:41:25.749Z,19.00
2018-12-10T21:43:55.669Z,17.83
2018-12-10T21:46:25.674Z,18.17
2018-12-10T21:48:56.212Z,14.47
2018-12-10T21:51:26.139Z,15.43
2018-12-10T21:53:56.051Z,12.40
2018-12-10T21:56:26.048Z,14.70
2018-12-10T21:58:55.986Z,17.63
2018-12-10T22:01:26.035Z,14.83
2018-12-10T22:03:56.027Z,16.10
2018-12-10T22:06:25.929Z,18.03
2018-12-10T22:08:55.988Z,18.97
2018-12-10T22:11:25.898Z,19.70
2018-12-10T22:13:55.861Z,18.87
2018-12-10T22:16:25.745Z,19.13
2018-12-10T22:18:55.821Z,17.43
2018-12-10T22:21:25.777Z,18.83
2018-12-10T22:23:55.725Z,18.90
2018-12-10T22:26:25.684Z,17.37
2018-12-10T22:28:55.623Z,16.53
2018-12-10T22:31:25.627Z,17.10
2018-12-10T22:33:55.384Z,15.50
2018-12-10T22:36:25.355Z,15.57
2018-12-10T22:38:55.334Z,14.83
2018-12-10T22:41:25.265Z,13.40
2018-12-10T22:43:55.176Z,14.93
2018-12-10T22:46:25.169Z,15.13
2018-12-10T22:48:55.701Z,13.77
2018-12-10T22:51:25.565Z,13.47
2018-12-10T22:53:56.192Z,13.57
2018-12-10T22:56:26.053Z,14.50
2018-12-10T22:58:56.101Z,14.90
2018-12-10T23:01:26.146Z,14.97
2018-12-10T23:03:56.166Z,13.67
2018-12-10T23:06:26.079Z,15.33
2018-12-10T23:08:56.041Z,17.10
2018-12-10T23:11:25.880Z,12.93
2018-12-10T23:13:55.897Z,14.90
2018-12-10T23:16:25.741Z,15.30
2018-12-10T23:18:56.583Z,13.03
2018-12-10T23:21:26.600Z,12.80
2018-12-10T23:23:56.605Z,12.33
2018-12-10T23:26:26.527Z,12.03
2018-12-10T23:28:56.590Z,15.40
2018-12-10T23:31:26.361Z,12.67
2018-12-10T23:33:56.249Z,14.90
2018-12-10T23:36:26.125Z,13.63
2018-12-10T23:38:56.144Z,13.80
2018-12-10T23:41:26.076Z,14.80
2018-12-10T23:43:55.972Z,13.83
2018-12-10T23:46:25.915Z,13.60
2018-12-10T23:48:55.805Z,13.77
2018-12-10T23:51:25.931Z,14.37
2018-12-10T23:53:55.864Z,14.17
2018-12-10T23:56:25.807Z,13.23
2018-12-10T23:58:55.800Z,14.40
